Time;durP1;ratioP1;P1;durP2;ratioP2;P2;SDS_P1;SDS_P2;PMS_P1;PMS_P2;Temp;Humidity;BMP_temperature;BMP_pressure;BME280_temperature;BME280_humidity;BME280_pressure;Samples;Min_cycle;Max_cycle;Signal;HPM_P1;HPM_P2
2022/02/26 00:02:20;;;;;;;12.60;5.07;;;;;;;-1.13;100.00;97897.25;5035480;28;20178;-71
2022/02/26 00:04:46;;;;;;;14.13;4.95;;;;;;;-1.04;100.00;97890.31;5055844;28;20020;-70
2022/02/26 00:07:11;;;;;;;11.70;4.93;;;;;;;-0.93;100.00;97898.44;5058046;28;20041;-68
2022/02/26 00:09:37;;;;;;;12.95;4.43;;;;;;;-1.02;100.00;97896.22;5047000;28;20041;-71
2022/02/26 00:12:03;;;;;;;8.77;3.97;;;;;;;-1.09;100.00;97900.22;5041113;28;20037;-67
2022/02/26 00:14:29;;;;;;;10.60;4.43;;;;;;;-1.16;100.00;97900.47;5034600;28;20042;-69
2022/02/26 00:16:55;;;;;;;10.40;4.05;;;;;;;-1.14;100.00;97906.38;5043762;28;20045;-71
2022/02/26 00:19:20;;;;;;;13.90;4.07;;;;;;;-1.16;100.00;97903.94;5044218;28;20044;-71
2022/02/26 00:21:45;;;;;;;9.65;4.72;;;;;;;-1.09;100.00;97900.22;5040756;28;20045;-69
2022/02/26 00:24:11;;;;;;;15.05;7.07;;;;;;;-0.99;100.00;97903.78;5028128;28;20113;-71
2022/02/26 00:26:36;;;;;;;9.93;4.75;;;;;;;-0.96;100.00;97907.81;5017606;28;20033;-70
2022/02/26 00:29:03;;;;;;;9.35;4.47;;;;;;;-0.96;100.00;97905.13;5042094;28;20513;-66
2022/02/26 00:31:28;;;;;;;8.82;4.80;;;;;;;-0.89;100.00;97913.75;5035005;28;20044;-71
2022/02/26 00:33:54;;;;;;;13.60;5.75;;;;;;;-1.07;100.00;97911.53;5032967;28;20033;-69
2022/02/26 00:36:19;;;;;;;8.57;4.63;;;;;;;-1.07;100.00;97909.66;5027923;28;20052;-71
2022/02/26 00:38:45;;;;;;;14.10;5.28;;;;;;;-1.19;100.00;97915.25;5032433;28;20497;-69
2022/02/26 00:41:10;;;;;;;11.65;5.75;;;;;;;-1.00;100.00;97906.72;5027861;28;20227;-68
2022/02/26 00:43:36;;;;;;;11.25;5.50;;;;;;;-0.86;100.00;97901.69;5042716;28;20049;-68
2022/02/26 00:46:01;;;;;;;8.65;5.10;;;;;;;-0.79;100.00;97908.44;5034839;28;20033;-69
2022/02/26 00:51:11;;;;;;;12.23;5.43;;;;;;;-0.42;100.00;97917.44;5023625;28;20030;-69
2022/02/26 00:53:36;;;;;;;11.85;5.88;;;;;;;-0.36;100.00;97918.25;5036567;28;20076;-70
2022/02/26 00:56:03;;;;;;;13.05;5.90;;;;;;;-0.24;100.00;97913.44;5033443;28;20115;-65
2022/02/26 00:58:29;;;;;;;12.63;6.30;;;;;;;-0.08;100.00;97920.44;5045029;28;20622;-70
2022/02/26 01:00:54;;;;;;;17.45;6.43;;;;;;;-0.23;100.00;97913.16;5042893;28;20128;-70
2022/02/26 01:03:19;;;;;;;11.50;6.18;;;;;;;-0.26;100.00;97916.38;5030676;28;20037;-69
2022/02/26 01:05:45;;;;;;;15.43;6.43;;;;;;;-0.08;100.00;97914.25;5038147;28;20402;-68
2022/02/26 01:08:10;;;;;;;20.70;6.43;;;;;;;-0.10;100.00;97914.53;5031800;28;20038;-70
2022/02/26 01:10:37;;;;;;;13.85;6.40;;;;;;;-0.33;100.00;97909.66;5040475;28;20037;-70
2022/02/26 01:13:02;;;;;;;16.80;6.82;;;;;;;-0.54;100.00;97912.31;5043011;28;20128;-65
2022/02/26 01:15:28;;;;;;;14.30;6.47;;;;;;;-0.50;100.00;97912.56;5040249;28;20072;-69
2022/02/26 01:17:53;;;;;;;13.85;6.85;;;;;;;-0.34;100.00;97916.91;5047910;28;20037;-67
2022/02/26 01:20:19;;;;;;;13.98;6.93;;;;;;;-0.27;100.00;97916.66;5037569;28;20076;-70
2022/02/26 01:22:44;;;;;;;19.83;7.93;;;;;;;-0.44;100.00;97916.88;5037058;28;20032;-69
2022/02/26 01:25:10;;;;;;;13.40;7.60;;;;;;;-0.37;100.00;97922.81;5030939;28;20514;-68
2022/02/26 01:27:39;;;;;;;17.73;8.13;;;;;;;-0.45;100.00;97920.63;5041413;28;20124;-70
2022/02/26 01:30:06;;;;;;;20.10;8.25;;;;;;;-0.53;100.00;97927.34;5069884;28;20065;-69
2022/02/26 01:32:32;;;;;;;17.80;8.63;;;;;;;-0.49;100.00;97917.66;5045680;28;20029;-70
2022/02/26 01:34:57;;;;;;;18.80;8.27;;;;;;;-0.46;100.00;97917.16;5046640;28;20040;-71
2022/02/26 01:37:22;;;;;;;20.50;8.35;;;;;;;-0.50;100.00;97923.34;5047266;28;20048;-72
2022/02/26 01:39:48;;;;;;;28.33;9.00;;;;;;;-0.66;100.00;97915.22;5048225;28;20037;-71
2022/02/26 01:42:14;;;;;;;20.88;8.85;;;;;;;-0.75;100.00;97919.47;5043633;28;20041;-72
2022/02/26 01:44:46;;;;;;;26.10;9.90;;;;;;;-0.62;100.00;97927.06;5056789;28;20110;-72
2022/02/26 01:47:11;;;;;;;29.27;10.07;;;;;;;-0.33;100.00;97925.81;5056684;28;20029;-71
2022/02/26 01:49:36;;;;;;;20.73;10.35;;;;;;;-0.27;100.00;97927.41;5056943;28;20044;-70
2022/02/26 01:52:02;;;;;;;24.02;10.60;;;;;;;-0.14;100.00;97923.44;5055941;28;20029;-67
2022/02/26 01:54:28;;;;;;;22.15;10.55;;;;;;;-0.07;100.00;97927.47;5055454;28;20502;-68
2022/02/26 01:56:54;;;;;;;23.02;10.55;;;;;;;0.00;100.00;97927.22;5055219;28;20025;-68
2022/02/26 01:59:20;;;;;;;24.48;11.10;;;;;;;-0.12;100.00;97930.16;5055385;28;20028;-68
2022/02/26 02:01:45;;;;;;;20.80;10.60;;;;;;;0.07;100.00;97929.63;5059732;28;20036;-68
2022/02/26 02:04:11;;;;;;;18.70;10.15;;;;;;;-0.03;100.00;97930.44;5060357;28;20029;-67
2022/02/26 02:06:37;;;;;;;24.63;10.00;;;;;;;-0.18;100.00;97925.84;5055207;28;20803;-67
2022/02/26 02:09:02;;;;;;;19.65;9.85;;;;;;;-0.31;100.00;97942.50;5055716;28;20390;-68
2022/02/26 02:11:29;;;;;;;24.58;10.18;;;;;;;-0.24;100.00;97935.78;5055565;28;20045;-68
2022/02/26 02:13:55;;;;;;;20.98;10.18;;;;;;;-0.21;100.00;97937.13;5054208;28;20025;-69
2022/02/26 02:16:20;;;;;;;20.42;10.23;;;;;;;-0.33;100.00;97942.75;5056351;28;20036;-68
2022/02/26 02:18:46;;;;;;;23.10;10.93;;;;;;;-0.33;100.00;97942.75;5055237;28;20095;-67
2022/02/26 02:21:11;;;;;;;25.17;11.05;;;;;;;-0.28;100.00;97940.06;5055096;28;20032;-68
2022/02/26 02:23:37;;;;;;;23.25;10.48;;;;;;;-0.15;100.00;97952.22;5054478;28;20083;-68
2022/02/26 02:26:02;;;;;;;22.58;10.48;;;;;;;-0.08;100.00;97947.38;5054374;28;20035;-68
2022/02/26 02:28:28;;;;;;;22.83;11.00;;;;;;;0.04;100.00;97951.69;5055760;28;20028;-69
2022/02/26 02:30:53;;;;;;;22.38;10.95;;;;;;;0.12;100.00;97949.28;5055456;28;20517;-68
2022/02/26 02:33:19;;;;;;;21.58;10.10;;;;;;;0.19;100.00;97943.66;5055504;28;20032;-69
2022/02/26 02:35:45;;;;;;;19.98;10.35;;;;;;;0.25;100.00;97947.94;5055921;28;20029;-68
2022/02/26 02:38:12;;;;;;;21.85;10.60;;;;;;;0.30;100.00;97937.19;5055249;28;20068;-68
2022/02/26 02:40:39;;;;;;;17.98;9.35;;;;;;;0.22;100.00;97943.13;5055248;28;20680;-67
2022/02/26 02:43:06;;;;;;;16.80;9.10;;;;;;;0.10;100.00;97942.56;5048695;28;20029;-67
2022/02/26 02:45:32;;;;;;;19.17;10.07;;;;;;;0.06;100.00;97936.91;5035287;28;20036;-68
2022/02/26 02:47:57;;;;;;;18.13;9.02;;;;;;;-0.09;100.00;97937.72;5035153;28;20037;-68
2022/02/26 02:50:23;;;;;;;22.27;9.48;;;;;;;-0.45;100.00;97951.06;5035495;28;20504;-67
2022/02/26 02:52:48;;;;;;;18.77;8.93;;;;;;;-0.53;100.00;97940.00;5038913;28;20577;-70
2022/02/26 02:55:15;;;;;;;22.90;9.73;;;;;;;-0.61;100.00;97934.06;5063927;28;20090;-69
2022/02/26 02:57:43;;;;;;;21.58;9.20;;;;;;;-0.62;100.00;97929.75;5042442;28;20029;-67
2022/02/26 03:00:09;;;;;;;23.33;9.55;;;;;;;-0.70;100.00;97935.66;5036969;28;20033;-69
2022/02/26 03:02:35;;;;;;;18.45;9.32;;;;;;;-0.77;100.00;97935.88;5035896;28;20454;-69
2022/02/26 03:05:01;;;;;;;19.08;9.10;;;;;;;-0.85;100.00;97944.44;5050369;28;20166;-68
2022/02/26 03:07:26;;;;;;;16.25;8.23;;;;;;;-0.78;100.00;97944.22;5055041;28;20032;-68
2022/02/26 03:09:52;;;;;;;18.90;9.38;;;;;;;-0.87;100.00;97935.81;5053592;28;20043;-69
2022/02/26 03:12:18;;;;;;;19.67;10.07;;;;;;;-1.00;100.00;97944.38;5053883;28;20039;-69
2022/02/26 03:14:43;;;;;;;23.90;10.00;;;;;;;-1.09;100.00;97943.25;5059252;28;20024;-69
2022/02/26 03:17:09;;;;;;;22.27;10.40;;;;;;;-1.44;100.00;97942.78;5055779;28;20024;-69
2022/02/26 03:19:34;;;;;;;23.45;11.10;;;;;;;-1.54;100.00;97946.19;5061100;28;20033;-68
2022/02/26 03:22:00;;;;;;;24.60;11.48;;;;;;;-1.59;100.00;97945.34;5053584;28;20401;-69
2022/02/26 03:24:25;;;;;;;34.03;12.30;;;;;;;-1.33;100.00;97940.97;5052026;28;20033;-68
2022/02/26 03:26:56;;;;;;;31.55;11.60;;;;;;;-1.30;100.00;97947.69;5052925;28;20059;-68
2022/02/26 03:29:23;;;;;;;22.92;10.02;;;;;;;-1.61;100.00;97942.91;5052048;28;20036;-68
2022/02/26 03:31:48;;;;;;;24.50;10.68;;;;;;;-1.94;100.00;97947.47;5060822;28;20119;-67
2022/02/26 03:34:14;;;;;;;34.13;12.50;;;;;;;-1.82;100.00;97950.00;5057880;28;20167;-69
2022/02/26 03:36:40;;;;;;;40.80;13.73;;;;;;;-1.89;100.00;97952.09;5053077;28;20040;-68
2022/02/26 03:39:05;;;;;;;36.90;13.48;;;;;;;-1.96;100.00;97964.91;5053815;28;20041;-68
2022/02/26 03:41:31;;;;;;;30.42;13.10;;;;;;;-2.08;100.00;97958.88;5056649;28;20039;-68
2022/02/26 03:43:56;;;;;;;32.10;13.80;;;;;;;-2.19;100.00;97964.16;5068505;28;20039;-68
2022/02/26 03:46:23;;;;;;;27.95;13.52;;;;;;;-2.21;100.00;97963.59;5056930;28;20021;-68
2022/02/26 03:48:50;;;;;;;33.53;13.20;;;;;;;-2.10;100.00;97964.50;5052987;28;20094;-68
2022/02/26 03:51:15;;;;;;;27.88;12.25;;;;;;;-2.10;100.00;97969.88;5054493;28;20785;-68
2022/02/26 03:53:41;;;;;;;34.20;12.63;;;;;;;-2.22;100.00;97967.31;5053212;28;20029;-68
2022/02/26 03:56:07;;;;;;;23.20;10.88;;;;;;;-2.03;100.00;97967.00;5052549;28;20048;-68
2022/02/26 03:58:32;;;;;;;25.70;11.90;;;;;;;-1.87;100.00;97965.25;5053961;28;20074;-67
2022/02/26 04:00:57;;;;;;;23.55;11.32;;;;;;;-1.74;100.00;97976.38;5052670;28;20482;-68
2022/02/26 04:03:23;;;;;;;21.90;11.25;;;;;;;-1.77;100.00;97976.09;5051670;28;20389;-69
2022/02/26 04:05:48;;;;;;;29.02;11.38;;;;;;;-1.83;100.00;97969.84;5050511;28;20032;-68
2022/02/26 04:08:14;;;;;;;22.25;11.02;;;;;;;-1.78;100.00;97980.66;5056353;28;20032;-68
2022/02/26 04:10:39;;;;;;;28.33;12.25;;;;;;;-1.77;100.00;97982.25;5056916;28;20048;-68
2022/02/26 04:13:05;;;;;;;21.90;10.65;;;;;;;-1.73;100.00;97993.28;5057032;28;20072;-68
2022/02/26 04:15:31;;;;;;;37.78;11.68;;;;;;;-2.22;100.00;97996.03;5053510;28;20028;-68
2022/02/26 04:17:56;;;;;;;37.08;11.65;;;;;;;-2.88;100.00;97999.56;5047619;28;20025;-68
2022/02/26 04:20:22;;;;;;;37.28;11.27;;;;;;;-2.99;100.00;98006.66;5056506;28;20032;-70
2022/02/26 04:22:47;;;;;;;41.30;11.27;;;;;;;-3.07;100.00;98005.19;5054331;28;20526;-68
2022/02/26 04:25:13;;;;;;;44.08;12.60;;;;;;;-3.16;100.00;98009.34;5052431;28;20037;-67
2022/02/26 04:27:38;;;;;;;25.50;12.40;;;;;;;-3.13;100.00;98024.13;5053576;28;20028;-67
2022/02/26 04:30:06;;;;;;;21.95;10.35;;;;;;;-2.81;100.00;98026.16;5050748;28;20033;-68
2022/02/26 04:32:31;;;;;;;18.20;10.23;;;;;;;-2.71;100.00;98029.81;5050342;28;20025;-68
2022/02/26 04:34:57;;;;;;;16.83;9.80;;;;;;;-2.65;100.00;98016.47;5052647;28;20644;-68
2022/02/26 04:37:22;;;;;;;18.83;10.30;;;;;;;-2.65;100.00;98027.19;5066059;28;20450;-67
2022/02/26 04:39:48;;;;;;;17.85;9.88;;;;;;;-2.56;100.00;98034.53;5056719;28;20115;-69
2022/02/26 04:42:14;;;;;;;16.45;10.05;;;;;;;-2.49;100.00;98031.69;5049768;28;20521;-69
2022/02/26 04:44:39;;;;;;;19.27;10.13;;;;;;;-2.61;100.00;98025.63;5045248;28;20029;-67
2022/02/26 04:47:05;;;;;;;19.95;9.43;;;;;;;-2.80;100.00;98033.16;5035732;28;20367;-68
2022/02/26 04:49:31;;;;;;;22.92;10.80;;;;;;;-2.83;100.00;98030.97;5051158;28;20033;-68
2022/02/26 04:51:56;;;;;;;20.98;10.13;;;;;;;-2.71;100.00;98026.31;5050352;28;20513;-69
2022/02/26 04:54:22;;;;;;;17.10;9.40;;;;;;;-2.67;100.00;98030.13;5053380;28;20017;-67
2022/02/26 04:56:47;;;;;;;20.23;9.75;;;;;;;-2.61;100.00;98029.16;5053768;28;20032;-68
2022/02/26 04:59:13;;;;;;;38.65;14.18;;;;;;;-2.46;100.00;98036.56;5051992;28;20040;-68
2022/02/26 05:01:38;;;;;;;42.08;17.85;;;;;;;-2.46;100.00;98033.06;5054536;28;20040;-69
2022/02/26 05:04:04;;;;;;;25.50;11.77;;;;;;;-2.46;100.00;98033.06;5053284;28;20032;-68
2022/02/26 05:06:29;;;;;;;17.85;9.93;;;;;;;-2.57;100.00;98032.94;5053177;28;20386;-67
2022/02/26 05:08:54;;;;;;;18.08;9.18;;;;;;;-2.50;100.00;98028.19;5053212;28;20041;-67
2022/02/26 05:11:20;;;;;;;16.27;10.05;;;;;;;-2.37;100.00;98042.31;5052498;28;20628;-68
2022/02/26 05:13:45;;;;;;;16.75;10.02;;;;;;;-2.45;100.00;98040.84;5053157;28;20326;-69
2022/02/26 05:16:11;;;;;;;18.20;8.90;;;;;;;-2.34;100.00;98037.25;5052351;28;20037;-69
2022/02/26 05:18:38;;;;;;;13.95;8.63;;;;;;;-2.22;100.00;98037.09;5052443;28;20057;-68
2022/02/26 05:21:04;;;;;;;15.27;8.63;;;;;;;-2.14;100.00;98039.38;5056054;28;20493;-69
2022/02/26 05:23:29;;;;;;;12.02;8.25;;;;;;;-2.17;100.00;98039.84;5064888;28;20063;-68
2022/02/26 05:25:54;;;;;;;15.18;8.50;;;;;;;-2.08;100.00;98039.44;5053835;28;20040;-68
2022/02/26 05:28:20;;;;;;;12.93;7.85;;;;;;;-1.99;100.00;98043.28;5050293;28;20093;-70
2022/02/26 05:30:45;;;;;;;15.52;8.60;;;;;;;-1.87;100.00;98046.63;5049816;28;20032;-69
2022/02/26 05:33:11;;;;;;;13.65;7.85;;;;;;;-1.95;100.00;98047.88;5054303;28;20150;-68
2022/02/26 05:35:36;;;;;;;12.32;7.93;;;;;;;-2.12;100.00;98045.28;5052800;28;20393;-69
2022/02/26 05:38:02;;;;;;;14.43;7.93;;;;;;;-2.17;100.00;98049.78;5057363;28;20037;-69
2022/02/26 05:40:27;;;;;;;13.70;8.65;;;;;;;-2.05;100.00;98052.31;5057220;28;20033;-68
2022/02/26 05:42:53;;;;;;;13.23;8.07;;;;;;;-1.94;100.00;98060.25;5072147;28;20029;-68
2022/02/26 05:45:18;;;;;;;13.80;8.05;;;;;;;-1.76;100.00;98053.72;5054955;28;20033;-70
2022/02/26 05:47:43;;;;;;;14.73;8.07;;;;;;;-1.71;100.00;98057.53;5055514;28;20025;-67
2022/02/26 05:50:10;;;;;;;14.55;8.48;;;;;;;-1.74;100.00;98064.22;5048930;28;20044;-69
2022/02/26 05:52:35;;;;;;;17.60;8.05;;;;;;;-1.57;100.00;98061.41;5047170;28;20496;-68
2022/02/26 05:55:00;;;;;;;16.10;9.43;;;;;;;-1.48;100.00;98069.84;5045919;28;20041;-66
2022/02/26 05:57:26;;;;;;;18.45;8.95;;;;;;;-1.39;100.00;98084.44;5040912;28;20044;-66
2022/02/26 05:59:51;;;;;;;11.80;8.52;;;;;;;-1.35;100.00;98085.56;5044669;28;20052;-65
2022/02/26 06:02:17;;;;;;;18.70;9.68;;;;;;;-1.30;100.00;98096.34;5038758;28;20044;-66
2022/02/26 06:04:42;;;;;;;15.80;9.52;;;;;;;-1.47;100.00;98095.66;5045382;28;20056;-65
2022/02/26 06:07:08;;;;;;;16.95;9.73;;;;;;;-1.50;100.00;98088.09;5042244;28;20045;-66
2022/02/26 06:09:33;;;;;;;14.88;8.52;;;;;;;-1.58;100.00;98095.53;5046716;28;20059;-67
2022/02/26 06:11:58;;;;;;;13.68;8.35;;;;;;;-1.67;100.00;98102.44;5047164;28;20080;-65
2022/02/26 06:14:24;;;;;;;17.73;8.30;;;;;;;-1.65;100.00;98110.25;5042270;28;20055;-67
2022/02/26 06:16:49;;;;;;;12.73;7.90;;;;;;;-1.87;100.00;98107.56;5056881;28;20459;-67
2022/02/26 06:19:15;;;;;;;16.92;9.43;;;;;;;-2.06;100.00;98113.28;5040402;28;20142;-67
2022/02/26 06:21:40;;;;;;;17.65;8.35;;;;;;;-2.06;100.00;98115.97;5050354;28;20033;-67
2022/02/26 06:24:06;;;;;;;21.27;11.75;;;;;;;-2.27;100.00;98117.56;5042802;28;20522;-68
2022/02/26 06:26:32;;;;;;;18.45;10.15;;;;;;;-2.29;100.00;98121.56;5047477;28;20072;-67
2022/02/26 06:28:58;;;;;;;22.77;12.85;;;;;;;-2.29;100.00;98130.41;5047699;28;20071;-68
2022/02/26 06:31:23;;;;;;;21.13;10.30;;;;;;;-2.40;100.00;98137.53;5042355;28;20612;-66
2022/02/26 06:33:49;;;;;;;16.83;10.82;;;;;;;-2.25;100.00;98136.94;5045510;28;20807;-67
2022/02/26 06:36:14;;;;;;;20.83;11.63;;;;;;;-2.05;100.00;98139.06;5056354;28;20049;-66
2022/02/26 06:38:39;;;;;;;18.80;10.68;;;;;;;-1.81;100.00;98130.75;5047703;28;20079;-71
2022/02/26 06:41:05;;;;;;;23.05;10.85;;;;;;;-1.83;100.00;98141.75;5042543;28;20436;-70
2022/02/26 06:43:30;;;;;;;17.42;10.70;;;;;;;-2.20;100.00;98138.84;5047085;28;20745;-69
2022/02/26 06:45:56;;;;;;;24.40;14.93;;;;;;;-1.97;100.00;98133.25;5048171;28;20390;-68
2022/02/26 06:48:21;;;;;;;20.65;11.27;;;;;;;-1.98;100.00;98137.00;5043304;28;20044;-68
2022/02/26 06:50:47;;;;;;;22.35;12.23;;;;;;;-1.77;100.00;98138.03;5048183;28;20386;-66
2022/02/26 06:53:12;;;;;;;19.25;10.85;;;;;;;-1.48;100.00;98137.81;5044626;28;20459;-67
2022/02/26 06:55:38;;;;;;;21.73;10.68;;;;;;;-1.33;100.00;98139.03;5060999;28;20051;-65
2022/02/26 06:58:03;;;;;;;17.10;10.13;;;;;;;-1.15;100.00;98141.38;5056714;28;20082;-71
2022/02/26 07:00:29;;;;;;;19.38;11.68;;;;;;;-1.01;100.00;98133.69;5049133;28;20071;-68
2022/02/26 07:02:55;;;;;;;19.13;10.70;;;;;;;-0.99;100.00;98131.53;5048571;28;20032;-67
2022/02/26 07:05:21;;;;;;;19.48;10.25;;;;;;;-0.92;100.00;98139.41;5047290;28;20109;-69
2022/02/26 07:07:46;;;;;;;16.25;9.95;;;;;;;-0.62;100.00;98139.63;5046086;28;20497;-68
2022/02/26 07:10:12;;;;;;;19.52;11.20;;;;;;;-0.53;100.00;98139.97;5041557;28;20048;-67
2022/02/26 07:12:38;;;;;;;18.83;9.05;;;;;;;-0.44;100.00;98140.31;5046484;28;20051;-66
2022/02/26 07:15:04;;;;;;;16.08;8.68;;;;;;;-0.36;100.00;98144.38;5044182;28;20153;-73
2022/02/26 07:17:30;;;;;;;16.02;8.63;;;;;;;-0.27;100.00;98140.13;5043510;28;20045;-67
2022/02/26 07:19:55;;;;;;;15.48;8.90;;;;;;;-0.23;100.00;98147.44;5047391;28;20184;-66
2022/02/26 07:22:20;;;;;;;12.77;8.60;;;;;;;-0.12;100.00;98147.50;5053069;28;20075;-66
2022/02/26 07:24:46;;;;;;;13.68;8.05;;;;;;;-0.07;100.00;98150.22;5062017;28;20029;-66
2022/02/26 07:27:13;;;;;;;13.27;7.47;;;;;;;-0.07;100.00;98150.22;5039665;28;20073;-71
2022/02/26 07:29:39;;;;;;;13.82;7.72;;;;;;;0.05;100.00;98153.47;5045324;28;20567;-65
2022/02/26 07:32:05;;;;;;;17.95;9.40;;;;;;;-0.08;100.00;98154.78;5040110;28;20129;-70
2022/02/26 07:34:31;;;;;;;17.63;8.95;;;;;;;-0.05;100.00;98151.56;5044509;28;20044;-67
2022/02/26 07:36:56;;;;;;;15.60;8.70;;;;;;;0.08;100.00;98152.16;5047474;28;20068;-66
2022/02/26 07:39:22;;;;;;;12.02;8.20;;;;;;;0.02;100.00;98158.59;5041437;28;20476;-67
2022/02/26 07:41:47;;;;;;;13.60;8.13;;;;;;;0.02;100.00;98148.66;5046495;28;20052;-67
2022/02/26 07:44:13;;;;;;;13.38;7.80;;;;;;;0.08;100.00;98152.16;5041738;28;20052;-67
2022/02/26 07:46:39;;;;;;;17.95;8.23;;;;;;;0.20;100.00;98152.75;5050770;28;20112;-68
2022/02/26 07:49:04;;;;;;;17.67;8.50;;;;;;;0.36;100.00;98159.00;5046667;28;20075;-69
2022/02/26 07:51:30;;;;;;;12.52;8.77;;;;;;;0.47;100.00;98154.44;5044798;28;20041;-67
2022/02/26 07:53:55;;;;;;;11.18;7.32;;;;;;;0.54;100.00;98163.09;5044241;28;20032;-67
2022/02/26 07:56:21;;;;;;;15.68;7.20;;;;;;;0.68;100.00;98158.03;5053405;28;20037;-67
2022/02/26 07:58:46;;;;;;;14.18;7.82;;;;;;;0.62;100.00;98159.91;5045475;28;20044;-66
2022/02/26 08:01:12;;;;;;;12.63;7.53;;;;;;;0.84;100.00;98165.06;5039307;28;20044;-67
2022/02/26 08:03:37;;;;;;;12.65;7.30;;;;;;;0.90;100.00;98165.88;5034296;28;20484;-66
2022/02/26 08:06:03;;;;;;;11.82;6.68;;;;;;;1.05;100.00;98165.91;5020645;28;20199;-67
2022/02/26 08:08:28;;;;;;;27.88;14.02;;;;;;;0.99;100.00;98163.47;5022058;28;20502;-67
2022/02/26 08:10:54;;;;;;;15.57;7.10;;;;;;;1.01;100.00;98172.91;5024439;28;20049;-67
2022/02/26 08:13:19;;;;;;;12.77;7.28;;;;;;;1.02;100.00;98174.53;5054392;28;20040;-68
2022/02/26 08:15:44;;;;;;;10.13;6.75;;;;;;;1.12;100.00;98168.34;5038261;28;20036;-66
2022/02/26 08:18:10;;;;;;;13.65;7.03;;;;;;;1.18;100.00;98164.56;5037024;28;20105;-68
2022/02/26 08:20:36;;;;;;;13.48;7.10;;;;;;;1.48;100.00;98169.16;5042272;28;20041;-66
2022/02/26 08:23:02;;;;;;;12.00;5.43;;;;;;;1.64;100.00;98172.66;5044407;28;20045;-67
2022/02/26 08:25:28;;;;;;;12.95;6.85;;;;;;;1.65;100.00;98170.75;5039327;28;20098;-67
2022/02/26 08:27:53;;;;;;;15.18;6.13;;;;;;;1.85;100.00;98159.88;5041785;28;20068;-67
2022/02/26 08:30:20;;;;;;;12.63;6.82;;;;;;;1.72;100.00;98166.69;5055005;28;20064;-67
2022/02/26 08:32:46;;;;;;;12.18;6.28;;;;;;;2.27;100.00;98160.59;5059612;28;20110;-66
2022/02/26 08:35:13;;;;;;;12.80;6.63;;;;;;;1.94;100.00;98172.84;5039588;28;20041;-67
2022/02/26 08:37:40;;;;;;;14.27;8.52;;;;;;;0.87;100.00;98174.53;5044923;28;20037;-67
2022/02/26 08:40:08;;;;;;;14.02;7.70;;;;;;;0.42;100.00;98174.13;5039716;28;20044;-68
2022/02/26 08:42:34;;;;;;;29.33;15.70;;;;;;;0.36;100.00;98169.78;5044135;28;20045;-67
2022/02/26 08:45:02;;;;;;;27.88;13.93;;;;;;;0.43;100.00;98178.44;5048208;28;20494;-67
2022/02/26 08:47:29;;;;;;;62.47;30.50;;;;;;;0.73;100.00;98183.09;5041030;28;20057;-67
2022/02/26 08:49:56;;;;;;;20.77;9.93;;;;;;;1.33;100.00;98186.16;5038926;28;20052;-68
2022/02/26 08:52:22;;;;;;;17.10;9.35;;;;;;;1.97;100.00;98170.41;5039460;28;20994;-68
2022/02/26 08:54:47;;;;;;;14.13;7.13;;;;;;;2.81;99.52;98180.59;5059999;28;20104;-68
2022/02/26 08:57:13;;;;;;;14.38;6.70;;;;;;;3.60;93.75;98175.97;5034239;28;20037;-69
2022/02/26 08:59:38;;;;;;;12.05;7.20;;;;;;;3.83;90.62;98173.56;5043792;28;20073;-67
2022/02/26 09:02:04;;;;;;;18.77;7.30;;;;;;;4.27;88.71;98164.44;5040523;28;20040;-71
2022/02/26 09:04:29;;;;;;;16.05;6.22;;;;;;;5.21;86.64;98173.75;5044171;28;20048;-68
2022/02/26 09:06:55;;;;;;;15.93;5.35;;;;;;;6.60;76.00;98171.28;5042925;28;20131;-68
2022/02/26 09:09:20;;;;;;;18.90;9.80;;;;;;;6.23;77.98;98168.47;5039389;28;20041;-68
2022/02/26 09:11:46;;;;;;;12.80;5.07;;;;;;;5.22;81.65;98166.41;5047260;28;20372;-68
2022/02/26 09:14:11;;;;;;;12.50;4.68;;;;;;;5.31;80.81;98170.88;5041792;28;20044;-68
2022/02/26 09:16:37;;;;;;;15.60;6.53;;;;;;;5.47;78.75;98157.84;5047487;28;20051;-68
2022/02/26 09:19:03;;;;;;;10.95;5.40;;;;;;;4.08;82.09;98161.66;5045967;28;20068;-69
2022/02/26 09:21:30;;;;;;;14.80;6.03;;;;;;;3.68;83.92;98154.78;5058865;28;20048;-70
2022/02/26 09:23:55;;;;;;;11.45;5.25;;;;;;;3.30;85.97;98158.06;5048511;28;20044;-68
2022/02/26 09:26:21;;;;;;;18.10;6.95;;;;;;;3.66;87.33;98155.06;5058799;28;20037;-70
2022/02/26 09:28:47;;;;;;;13.75;5.80;;;;;;;3.78;85.22;98154.66;5047401;28;20037;-70
2022/02/26 09:31:13;;;;;;;12.43;5.57;;;;;;;4.51;80.55;98158.19;5043888;28;20059;-69
2022/02/26 09:33:40;;;;;;;18.15;5.57;;;;;;;4.54;79.81;98152.97;5048655;28;20147;-70
2022/02/26 09:36:07;;;;;;;15.23;5.68;;;;;;;3.41;77.57;98153.38;5042081;28;20037;-70
2022/02/26 09:38:34;;;;;;;11.70;6.53;;;;;;;3.89;80.50;98155.34;5048720;28;20071;-69
2022/02/26 09:41:02;;;;;;;11.02;4.63;;;;;;;3.19;78.37;98159.25;5047991;28;20047;-71
2022/02/26 09:43:28;;;;;;;13.48;5.47;;;;;;;3.32;78.03;98158.59;5042951;28;20040;-69
2022/02/26 09:45:55;;;;;;;13.07;5.55;;;;;;;3.21;78.82;98163.28;5040746;28;20048;-67
2022/02/26 09:48:21;;;;;;;10.77;4.80;;;;;;;3.48;77.58;98159.28;5030037;28;20044;-68
2022/02/26 09:50:49;;;;;;;10.27;3.30;;;;;;;3.51;73.74;98164.13;5028008;28;20132;-68
2022/02/26 09:53:16;;;;;;;8.68;3.60;;;;;;;3.90;73.97;98170.53;5027344;28;20041;-70
2022/02/26 09:55:43;;;;;;;14.85;5.68;;;;;;;3.71;76.52;98163.13;5047262;28;20521;-68
2022/02/26 09:58:10;;;;;;;15.27;4.35;;;;;;;3.68;76.11;98160.19;5043160;28;20040;-69
2022/02/26 10:00:37;;;;;;;6.57;3.50;;;;;;;4.04;73.23;98157.91;5047388;28;20079;-67
2022/02/26 10:03:04;;;;;;;7.00;3.83;;;;;;;4.17;72.40;98159.94;5051436;28;20033;-74
2022/02/26 10:05:30;;;;;;;15.77;3.88;;;;;;;4.82;70.21;98155.84;5063049;28;20676;-69
2022/02/26 10:07:56;;;;;;;10.52;3.33;;;;;;;5.42;69.06;98157.13;5047035;28;20051;-67
2022/02/26 10:10:28;;;;;;;10.60;3.85;;;;;;;4.83;67.96;98152.03;5043147;28;20395;-69
2022/02/26 10:12:58;;;;;;;11.30;3.63;;;;;;;4.60;70.68;98157.22;5047375;28;20127;-67
2022/02/26 10:15:29;;;;;;;9.13;3.10;;;;;;;4.00;71.26;98149.56;5043513;28;20470;-68
2022/02/26 10:18:02;;;;;;;12.73;3.30;;;;;;;3.83;71.52;98144.59;5045334;28;20052;-64
2022/02/26 10:20:28;;;;;;;4.93;2.70;;;;;;;4.71;69.20;98154.38;5042357;28;20051;-67
2022/02/26 10:22:55;;;;;;;8.77;3.42;;;;;;;5.08;67.84;98148.16;5045504;28;20059;-66
2022/02/26 10:25:23;;;;;;;8.55;2.72;;;;;;;5.53;62.78;98153.16;5039604;28;20044;-68
2022/02/26 10:27:54;;;;;;;9.60;2.53;;;;;;;6.14;62.62;98145.81;5047258;28;20045;-67
2022/02/26 10:30:29;;;;;;;11.57;3.00;;;;;;;5.95;63.00;98148.56;5045426;28;20033;-68
2022/02/26 10:33:11;;;;;;;6.43;2.95;;;;;;;5.02;65.58;98153.94;5063514;28;20071;-67
2022/02/26 10:35:51;;;;;;;5.30;2.30;;;;;;;5.22;61.29;98141.97;5049640;28;20048;-67
2022/02/26 10:38:20;;;;;;;7.28;2.47;;;;;;;4.77;63.16;98134.19;5042077;28;20052;-66
2022/02/26 10:40:46;;;;;;;11.57;2.58;;;;;;;4.91;62.69;98126.94;5046427;28;20382;-66
2022/02/26 10:43:12;;;;;;;7.28;1.98;;;;;;;4.76;62.28;98132.59;5040196;28;20490;-66
2022/02/26 10:45:37;;;;;;;5.95;2.40;;;;;;;4.80;62.33;98130.91;5056201;28;20060;-66
2022/02/26 10:48:03;;;;;;;7.82;1.77;;;;;;;4.59;58.50;98124.94;5042031;28;20045;-69
2022/02/26 10:50:31;;;;;;;5.32;2.33;;;;;;;5.06;60.13;98125.91;5045828;28;20075;-68
2022/02/26 10:53:04;;;;;;;6.32;1.70;;;;;;;5.51;56.88;98126.25;5045609;28;20072;-66
2022/02/26 10:55:52;;;;;;;6.88;2.00;;;;;;;4.46;59.89;98117.53;5043007;28;20045;-68
2022/02/26 10:58:23;;;;;;;9.32;2.20;;;;;;;4.13;61.59;98125.56;5047844;28;20052;-68
2022/02/26 11:00:49;;;;;;;5.88;1.83;;;;;;;4.69;61.13;98118.59;5061103;28;20071;-66
2022/02/26 11:03:16;;;;;;;11.13;1.80;;;;;;;4.91;60.38;98118.78;5042656;28;20055;-67
2022/02/26 11:05:42;;;;;;;7.07;1.60;;;;;;;3.93;61.14;98107.63;5046042;28;20048;-67
2022/02/26 11:08:09;;;;;;;12.10;2.08;;;;;;;4.43;61.46;98118.13;5040956;28;20522;-68
2022/02/26 11:10:35;;;;;;;3.45;1.23;;;;;;;4.85;55.82;98113.75;5044267;28;20040;-67
2022/02/26 11:13:02;;;;;;;9.65;2.38;;;;;;;5.89;55.28;98106.28;5044686;28;20068;-68
2022/02/26 11:15:31;;;;;;;10.32;2.90;;;;;;;7.03;55.17;98100.06;5042802;28;20045;-67
2022/02/26 11:18:00;;;;;;;6.80;2.27;;;;;;;6.50;53.57;98102.34;5046163;28;20041;-68